createdAt,value
2019-03-12T00:01:01.057Z,5.10
2019-03-12T00:03:30.538Z,5.23
2019-03-12T00:05:59.885Z,4.70
2019-03-12T00:08:29.281Z,5.30
2019-03-12T00:10:58.671Z,5.20
2019-03-12T00:13:28.022Z,4.83
2019-03-12T00:15:57.435Z,5.00
2019-03-12T00:18:28.457Z,4.93
2019-03-12T00:20:56.194Z,4.80
2019-03-12T00:23:25.877Z,5.30
2019-03-12T00:25:55.290Z,5.27
2019-03-12T00:28:24.777Z,5.27
2019-03-12T00:30:54.039Z,4.80
2019-03-12T00:33:23.436Z,5.67
2019-03-12T00:35:52.749Z,5.07
2019-03-12T00:38:22.195Z,6.03
2019-03-12T00:40:51.439Z,5.27
2019-03-12T00:43:21.028Z,5.17
2019-03-12T00:45:50.447Z,4.73
2019-03-12T00:48:19.751Z,6.50
2019-03-12T00:50:49.110Z,6.97
2019-03-12T00:53:18.641Z,5.70
2019-03-12T00:55:48.062Z,5.20
2019-03-12T00:58:17.553Z,5.40
2019-03-12T01:00:47.020Z,4.87
2019-03-12T01:03:16.388Z,4.90
2019-03-12T01:05:45.706Z,5.60
2019-03-12T01:08:15.027Z,5.67
2019-03-12T01:10:44.560Z,5.47
2019-03-12T01:13:19.729Z,5.70
2019-03-12T01:15:49.216Z,5.57
2019-03-12T01:18:18.550Z,5.60
2019-03-12T01:20:48.071Z,6.13
2019-03-12T01:23:17.551Z,6.53
2019-03-12T01:25:47.023Z,6.13
2019-03-12T01:28:16.329Z,6.53
2019-03-12T01:30:45.861Z,6.43
2019-03-12T01:33:15.290Z,8.13
2019-03-12T01:35:44.717Z,6.70
2019-03-12T01:38:14.042Z,6.70
2019-03-12T01:40:43.411Z,7.00
2019-03-12T01:43:12.906Z,7.10
2019-03-12T01:45:42.418Z,9.33
2019-03-12T01:48:11.866Z,7.93
2019-03-12T01:50:41.427Z,9.20
2019-03-12T01:53:10.817Z,8.50
2019-03-12T01:55:40.244Z,9.50
2019-03-12T01:58:09.657Z,9.37
2019-03-12T02:00:39.139Z,10.47
2019-03-12T02:03:08.678Z,9.53
2019-03-12T02:05:38.139Z,9.90
2019-03-12T02:08:07.494Z,11.53
2019-03-12T02:10:37.012Z,10.90
2019-03-12T02:13:06.524Z,9.43
2019-03-12T02:15:35.930Z,9.33
2019-03-12T02:18:05.174Z,10.37
2019-03-12T02:20:34.600Z,9.77
2019-03-12T02:23:04.006Z,10.43
2019-03-12T02:25:33.478Z,12.18
2019-03-12T02:28:02.876Z,10.93
2019-03-12T02:30:32.313Z,12.93
2019-03-12T02:33:01.782Z,11.23
2019-03-12T02:35:31.117Z,11.23
2019-03-12T02:38:00.601Z,11.00
2019-03-12T02:40:30.036Z,10.83
2019-03-12T02:42:59.521Z,12.78
2019-03-12T02:45:28.958Z,11.03
2019-03-12T02:47:58.402Z,10.47
2019-03-12T02:50:27.829Z,11.00
2019-03-12T02:52:57.579Z,10.47
2019-03-12T02:55:26.871Z,10.53
2019-03-12T02:57:56.365Z,9.70
2019-03-12T03:00:25.827Z,9.50
2019-03-12T03:02:55.527Z,9.90
2019-03-12T03:05:25.007Z,9.57
2019-03-12T03:08:06.369Z,9.00
2019-03-12T03:10:35.896Z,8.67
2019-03-12T03:13:05.378Z,8.73
2019-03-12T03:15:40.133Z,8.47
2019-03-12T03:18:09.716Z,9.07
2019-03-12T03:20:39.036Z,8.73
2019-03-12T03:23:08.479Z,8.03
2019-03-12T03:25:37.815Z,8.23
2019-03-12T03:28:07.228Z,7.70
2019-03-12T03:30:36.727Z,7.93
2019-03-12T03:33:06.149Z,7.93
2019-03-12T03:35:35.564Z,7.60
2019-03-12T03:38:05.107Z,6.97
2019-03-12T03:40:34.528Z,8.30
2019-03-12T03:43:04.021Z,7.57
2019-03-12T03:45:33.450Z,6.73
2019-03-12T03:48:02.897Z,7.13
2019-03-12T03:50:32.340Z,7.03
2019-03-12T03:53:01.835Z,7.77
2019-03-12T03:55:31.146Z,6.70
2019-03-12T03:58:00.565Z,7.07
2019-03-12T04:00:29.966Z,7.47
2019-03-12T04:02:59.341Z,7.50
2019-03-12T04:05:28.727Z,6.67
2019-03-12T04:07:58.289Z,6.80
2019-03-12T04:10:27.638Z,6.90
2019-03-12T04:12:56.972Z,6.43
2019-03-12T04:15:26.635Z,6.20
2019-03-12T04:17:56.062Z,6.70
2019-03-12T04:20:25.480Z,5.90
2019-03-12T04:22:54.928Z,6.07
2019-03-12T04:25:24.243Z,7.10
2019-03-12T04:27:53.701Z,5.60
2019-03-12T04:30:23.011Z,7.50
2019-03-12T04:32:52.471Z,7.80
2019-03-12T04:35:22.590Z,6.07
2019-03-12T04:37:52.004Z,7.03
2019-03-12T04:40:21.568Z,6.17
2019-03-12T04:42:51.027Z,7.33
2019-03-12T04:45:20.437Z,6.27
2019-03-12T04:47:50.050Z,6.50
2019-03-12T04:50:19.387Z,7.10
2019-03-12T04:52:48.887Z,6.50
2019-03-12T04:55:18.445Z,6.13
2019-03-12T04:57:47.957Z,6.33
2019-03-12T05:00:17.568Z,6.50
2019-03-12T05:02:47.133Z,6.30
2019-03-12T05:05:16.382Z,7.10
2019-03-12T05:07:45.835Z,6.87
2019-03-12T05:10:15.241Z,7.13
2019-03-12T05:12:44.619Z,7.37
2019-03-12T05:15:14.328Z,7.30
2019-03-12T05:17:44.280Z,5.60
2019-03-12T05:20:14.245Z,7.37
2019-03-12T05:22:43.625Z,6.63
2019-03-12T05:25:13.234Z,6.33
2019-03-12T05:27:42.601Z,7.37
2019-03-12T05:30:14.640Z,6.20
2019-03-12T05:32:43.984Z,6.30
2019-03-12T05:35:13.395Z,6.83
2019-03-12T05:37:42.819Z,7.10
2019-03-12T05:40:12.262Z,6.60
2019-03-12T05:42:41.722Z,6.30
2019-03-12T05:45:11.519Z,5.73
2019-03-12T05:47:40.971Z,6.63
2019-03-12T05:50:11.080Z,6.20
2019-03-12T05:52:40.578Z,6.50
2019-03-12T05:55:10.115Z,6.10
2019-03-12T05:57:39.462Z,5.80
2019-03-12T06:00:10.166Z,6.27
2019-03-12T06:02:39.645Z,6.43
2019-03-12T06:05:09.232Z,6.17
2019-03-12T06:07:38.550Z,6.00
2019-03-12T06:10:08.601Z,7.30
2019-03-12T06:12:38.000Z,5.83
2019-03-12T06:15:08.065Z,5.80
2019-03-12T06:17:37.638Z,5.43
2019-03-12T06:20:07.768Z,5.03
2019-03-12T06:22:37.247Z,5.00
2019-03-12T06:25:06.858Z,6.60
2019-03-12T06:29:07.544Z,5.40
2019-03-12T06:32:03.625Z,5.03
2019-03-12T06:34:45.862Z,5.20
2019-03-12T06:37:32.882Z,5.20
2019-03-12T06:40:09.383Z,6.65
2019-03-12T06:42:55.452Z,4.83
2019-03-12T06:45:43.925Z,5.83
2019-03-12T06:48:38.014Z,5.43
2019-03-12T06:51:24.902Z,5.50
2019-03-12T06:54:06.579Z,5.13
2019-03-12T06:56:54.952Z,4.83
2019-03-12T06:59:37.921Z,4.63
2019-03-12T07:02:26.268Z,5.57
2019-03-12T07:05:15.220Z,4.97
2019-03-12T07:07:50.712Z,4.33
2019-03-12T07:10:41.656Z,5.17
2019-03-12T07:13:32.968Z,4.67
2019-03-12T07:16:24.349Z,4.67
2019-03-12T07:19:11.572Z,5.90
2019-03-12T07:22:00.012Z,5.47
2019-03-12T07:24:48.329Z,6.50
2019-03-12T07:27:35.141Z,5.92
2019-03-12T07:30:14.798Z,5.17
2019-03-12T07:33:06.094Z,4.37
2019-03-12T07:35:57.582Z,4.27
2019-03-12T07:38:38.828Z,5.07
2019-03-12T07:41:32.130Z,4.07
2019-03-12T07:44:01.429Z,4.17
2019-03-12T07:56:39.735Z,3.97
2019-03-12T07:59:30.720Z,3.50
2019-03-12T08:02:12.452Z,3.63
2019-03-12T08:04:52.023Z,3.80
2019-03-12T08:07:49.432Z,3.43
2019-03-12T08:10:40.494Z,3.57
2019-03-12T08:13:19.524Z,4.03
2019-03-12T08:15:57.674Z,3.17
2019-03-12T08:18:46.009Z,3.27
2019-03-12T08:21:37.538Z,3.03
2019-03-12T08:24:31.789Z,3.20
2019-03-12T08:27:21.678Z,3.10
2019-03-12T08:30:13.276Z,3.33
2019-03-12T08:33:01.786Z,3.23
2019-03-12T08:35:53.269Z,2.33
2019-03-12T08:38:47.561Z,3.27
2019-03-12T08:41:33.465Z,3.27
2019-03-12T08:44:32.785Z,3.90
2019-03-12T08:47:16.790Z,3.20
2019-03-12T08:50:05.439Z,3.50
2019-03-12T08:52:56.597Z,3.07
2019-03-12T08:55:47.897Z,3.97
2019-03-12T08:58:32.123Z,3.23
2019-03-12T09:01:19.254Z,2.93
2019-03-12T09:04:19.776Z,3.37
2019-03-12T09:07:13.988Z,2.90
2019-03-12T09:10:08.052Z,3.72
2019-03-12T09:12:45.969Z,3.13
2019-03-12T09:15:40.035Z,4.20
2019-03-12T09:18:43.596Z,2.90
2019-03-12T09:21:31.734Z,3.60
2019-03-12T09:24:12.453Z,3.23
2019-03-12T09:26:53.231Z,3.07
2019-03-12T09:29:37.467Z,3.70
2019-03-12T09:32:28.531Z,3.77
2019-03-12T09:35:15.412Z,3.10
2019-03-12T09:38:15.777Z,3.10
2019-03-12T09:41:06.586Z,2.70
2019-03-12T09:44:01.120Z,3.13
2019-03-12T09:46:49.600Z,3.20
2019-03-12T09:49:37.750Z,3.40
2019-03-12T09:52:15.021Z,3.03
2019-03-12T09:54:58.834Z,3.80
2019-03-12T09:57:56.537Z,3.40
2019-03-12T10:00:45.187Z,3.75
2019-03-12T10:03:33.418Z,2.90
2019-03-12T10:09:51.644Z,3.50
2019-03-12T10:12:48.590Z,2.80
2019-03-12T10:15:30.543Z,3.83
2019-03-12T10:18:20.085Z,3.40
2019-03-12T10:21:11.345Z,3.13
2019-03-12T10:23:45.401Z,3.77
2019-03-12T10:26:39.994Z,3.77
2019-03-12T10:29:43.329Z,3.20
2019-03-12T10:32:28.920Z,3.50
2019-03-12T10:41:09.237Z,3.43
2019-03-12T10:44:36.500Z,3.47
2019-03-12T10:47:10.262Z,3.77
2019-03-12T10:49:39.714Z,3.67
2019-03-12T10:52:09.266Z,3.07
2019-03-12T10:54:38.527Z,2.53
2019-03-12T10:57:08.231Z,2.70
2019-03-12T10:59:37.680Z,2.97
2019-03-12T11:02:07.168Z,3.53
2019-03-12T11:05:17.192Z,2.80
2019-03-12T11:08:06.659Z,3.20
2019-03-12T11:10:33.167Z,3.00
2019-03-12T11:13:08.403Z,3.00
2019-03-12T11:15:37.800Z,3.07
2019-03-12T11:18:07.387Z,3.40
2019-03-12T11:20:36.696Z,2.33
2019-03-12T11:26:52.023Z,2.87
2019-03-12T11:29:21.424Z,3.80
2019-03-12T11:31:50.779Z,3.10
2019-03-12T11:34:20.290Z,2.10
2019-03-12T11:36:50.191Z,3.42
2019-03-12T11:39:19.574Z,3.20
2019-03-12T11:41:48.994Z,3.33
2019-03-12T11:44:18.395Z,3.23
2019-03-12T11:46:48.084Z,3.60
2019-03-12T11:49:17.627Z,3.85
2019-03-12T11:51:47.248Z,3.37
2019-03-12T11:54:16.861Z,3.07
2019-03-12T11:56:46.221Z,2.77
2019-03-12T11:59:15.633Z,2.97
2019-03-12T12:01:45.273Z,3.03
2019-03-12T12:04:14.762Z,3.17
2019-03-12T12:07:50.589Z,3.20
2019-03-12T12:10:02.657Z,3.07
2019-03-12T12:12:32.133Z,3.43
2019-03-12T12:15:01.401Z,3.07
2019-03-12T12:22:01.757Z,2.87
2019-03-12T12:24:31.299Z,3.20
2019-03-12T12:27:00.919Z,2.77
2019-03-12T12:33:14.162Z,3.62
2019-03-12T12:35:43.573Z,3.70
2019-03-12T12:38:13.077Z,3.13
2019-03-12T12:40:42.643Z,2.93
2019-03-12T12:43:12.034Z,3.33
2019-03-12T12:45:41.623Z,3.13
2019-03-12T12:48:11.236Z,2.60
2019-03-12T12:50:43.158Z,2.47
2019-03-12T12:53:16.023Z,1.93
2019-03-12T12:55:46.317Z,3.13
2019-03-12T12:58:16.243Z,2.50
2019-03-12T13:00:46.076Z,2.30
2019-03-12T13:03:16.017Z,2.57
2019-03-12T13:05:45.866Z,2.60
2019-03-12T13:08:18.571Z,2.47
2019-03-12T13:10:45.545Z,2.60
2019-03-12T13:13:15.340Z,2.30
2019-03-12T13:15:47.358Z,2.27
2019-03-12T13:18:17.403Z,2.30
2019-03-12T13:20:46.828Z,2.60
2019-03-12T13:23:30.738Z,2.47
2019-03-12T13:26:00.656Z,2.63
2019-03-12T13:28:37.842Z,2.27
2019-03-12T13:31:09.128Z,1.77
2019-03-12T13:33:41.321Z,2.30
2019-03-12T13:36:16.159Z,2.93
2019-03-12T13:38:47.734Z,2.33
2019-03-12T13:41:15.407Z,2.50
2019-03-12T13:43:45.246Z,2.30
2019-03-12T13:46:18.138Z,2.40
2019-03-12T13:48:48.594Z,1.67
2019-03-12T13:51:18.600Z,2.37
2019-03-12T13:53:48.652Z,2.20
2019-03-12T13:56:17.803Z,2.30
2019-03-12T13:58:46.992Z,2.50
2019-03-12T14:01:16.446Z,2.23
2019-03-12T14:03:45.871Z,2.30
2019-03-12T14:06:15.439Z,2.43
2019-03-12T14:08:44.950Z,2.57
2019-03-12T14:11:14.366Z,2.07
2019-03-12T14:13:43.775Z,2.20
2019-03-12T14:16:13.284Z,2.30
2019-03-12T14:18:42.878Z,2.77
2019-03-12T14:21:14.393Z,2.40
2019-03-12T14:23:56.234Z,2.27
2019-03-12T14:26:25.422Z,1.80
2019-03-12T14:28:54.489Z,2.63
2019-03-12T14:31:24.197Z,2.52
2019-03-12T14:33:53.644Z,2.60
2019-03-12T14:36:22.863Z,2.00
2019-03-12T14:38:52.149Z,2.20
2019-03-12T14:41:21.532Z,2.70
2019-03-12T14:43:50.805Z,2.40
2019-03-12T14:46:19.979Z,1.97
2019-03-12T14:49:02.631Z,1.80
2019-03-12T14:51:57.386Z,2.07
2019-03-12T14:54:26.646Z,2.83
2019-03-12T14:56:55.932Z,2.20
2019-03-12T15:03:23.965Z,2.10
2019-03-12T15:05:53.372Z,2.80
2019-03-12T15:08:22.694Z,2.30
2019-03-12T15:10:51.985Z,2.53
2019-03-12T15:13:21.211Z,2.33
2019-03-12T15:15:50.265Z,2.27
2019-03-12T15:18:30.391Z,2.40
2019-03-12T15:21:15.183Z,2.13
2019-03-12T15:24:18.512Z,2.30
2019-03-12T15:26:54.883Z,2.53
2019-03-12T15:29:30.817Z,2.70
2019-03-12T15:33:06.259Z,2.00
2019-03-12T15:35:41.463Z,1.97
2019-03-12T15:38:38.797Z,2.33
2019-03-12T15:41:25.133Z,2.57
2019-03-12T15:48:01.797Z,1.90
2019-03-12T15:50:35.043Z,2.50
2019-03-12T15:53:07.638Z,2.37
2019-03-12T15:55:45.359Z,2.30
2019-03-12T15:58:17.082Z,2.03
2019-03-12T16:00:46.857Z,2.47
2019-03-12T16:03:16.094Z,2.20
2019-03-12T16:05:45.338Z,2.50
2019-03-12T16:08:14.639Z,2.27
2019-03-12T16:10:56.814Z,2.13
2019-03-12T16:13:13.167Z,2.03
2019-03-12T16:15:42.387Z,2.43
2019-03-12T16:18:14.394Z,2.17
2019-03-12T16:20:41.020Z,2.33
2019-03-12T16:23:10.215Z,2.70
2019-03-12T16:25:39.544Z,2.37
2019-03-12T16:28:08.886Z,2.53
2019-03-12T16:30:37.763Z,2.30
2019-03-12T16:33:07.158Z,2.53
2019-03-12T16:35:38.660Z,2.10
2019-03-12T16:38:08.013Z,2.00
2019-03-12T16:40:37.206Z,2.83
2019-03-12T16:43:06.755Z,2.27
2019-03-12T16:45:35.968Z,2.57
2019-03-12T16:48:05.434Z,2.13
2019-03-12T16:50:34.693Z,2.20
2019-03-12T16:53:04.052Z,2.30
2019-03-12T16:55:33.210Z,2.70
2019-03-12T16:58:02.527Z,2.20
2019-03-12T17:00:31.820Z,2.63
2019-03-12T17:03:01.041Z,2.40
2019-03-12T17:05:30.404Z,2.23
2019-03-12T17:07:59.694Z,2.57
2019-03-12T17:10:28.820Z,2.50
2019-03-12T17:12:58.094Z,2.03
2019-03-12T17:15:27.333Z,2.27
2019-03-12T17:17:56.513Z,2.43
2019-03-12T17:20:25.758Z,2.37
2019-03-12T17:22:54.893Z,2.07
2019-03-12T17:25:47.035Z,2.53
2019-03-12T17:28:16.162Z,2.70
2019-03-12T17:31:04.012Z,2.30
2019-03-12T17:34:08.182Z,2.33
2019-03-12T17:36:37.639Z,2.70
2019-03-12T17:39:10.952Z,2.80
2019-03-12T17:41:46.405Z,2.43
2019-03-12T17:44:15.446Z,2.83
2019-03-12T17:47:53.181Z,2.47
2019-03-12T17:50:22.945Z,2.40
2019-03-12T17:52:52.128Z,2.97
2019-03-12T17:55:21.367Z,2.53
2019-03-12T17:57:51.249Z,2.77
2019-03-12T18:00:20.128Z,2.17
2019-03-12T18:02:49.441Z,2.70
2019-03-12T18:05:24.330Z,3.17
2019-03-12T18:08:18.969Z,2.93
2019-03-12T18:11:16.448Z,2.50
2019-03-12T18:13:48.594Z,2.37
2019-03-12T18:17:50.557Z,2.70
2019-03-12T18:20:19.677Z,2.83
2019-03-12T18:22:49.070Z,2.90
2019-03-12T18:25:48.332Z,2.77
2019-03-12T18:28:21.145Z,2.90
2019-03-12T18:30:50.480Z,2.40
2019-03-12T18:33:19.747Z,3.07
2019-03-12T18:39:55.984Z,4.07
2019-03-12T18:42:47.717Z,3.20
2019-03-12T18:45:26.801Z,3.10
2019-03-12T18:48:14.454Z,3.37
2019-03-12T18:50:44.775Z,2.67
2019-03-12T18:53:14.583Z,3.17
2019-03-12T18:56:07.380Z,3.30
2019-03-12T18:59:02.460Z,3.40
2019-03-12T19:01:31.388Z,3.90
2019-03-12T19:04:00.267Z,3.47
2019-03-12T19:06:29.441Z,3.43
2019-03-12T19:08:58.292Z,3.50
2019-03-12T19:11:27.171Z,3.80
2019-03-12T19:14:14.206Z,2.93
2019-03-12T19:16:44.380Z,4.40
2019-03-12T19:19:16.242Z,3.50
2019-03-12T19:22:08.195Z,3.47
2019-03-12T19:24:25.289Z,3.53
2019-03-12T19:26:54.277Z,4.00
2019-03-12T19:29:23.172Z,3.67
2019-03-12T19:32:16.964Z,3.43
2019-03-12T19:34:57.352Z,3.93
2019-03-12T19:37:35.483Z,3.87
2019-03-12T19:40:14.167Z,3.90
2019-03-12T19:43:09.117Z,4.10
2019-03-12T19:45:38.501Z,3.97
2019-03-12T19:48:25.772Z,4.63
2019-03-12T19:51:14.298Z,5.00
2019-03-12T19:57:23.378Z,3.10
2019-03-12T20:00:34.278Z,3.10
2019-03-12T20:03:10.776Z,2.20
2019-03-12T20:06:00.074Z,3.60
2019-03-12T20:08:33.717Z,5.90
2019-03-12T20:11:48.406Z,2.97
2019-03-12T20:14:54.383Z,1.00
2019-03-12T20:18:00.103Z,1.40
2019-03-12T20:20:55.977Z,0.93
2019-03-12T20:24:08.542Z,1.27
2019-03-12T20:27:16.849Z,1.40
2019-03-12T20:30:29.389Z,9.60
2019-03-12T20:33:55.323Z,11.77
2019-03-12T20:37:00.951Z,14.57
2019-03-12T20:40:26.759Z,22.50
2019-03-12T20:43:50.141Z,2.93
2019-03-12T20:47:02.815Z,1.43
2019-03-12T20:50:16.978Z,1.30
2019-03-12T20:53:46.051Z,1.20
2019-03-12T20:56:55.411Z,1.17
2019-03-12T21:00:09.395Z,1.20
2019-03-12T21:03:25.179Z,1.47
2019-03-12T21:06:44.575Z,1.50
2019-03-12T21:10:00.746Z,1.93
2019-03-12T21:13:01.703Z,1.70
2019-03-12T21:16:29.560Z,1.87
2019-03-12T21:19:39.631Z,2.40
2019-03-12T21:22:37.660Z,2.60
2019-03-12T21:25:50.330Z,3.00
2019-03-12T21:29:03.962Z,2.50
2019-03-12T21:31:32.817Z,2.58
2019-03-12T21:34:01.708Z,2.40
2019-03-12T21:36:31.185Z,2.30
2019-03-12T21:38:59.541Z,2.60
2019-03-12T21:41:28.446Z,2.87
2019-03-12T21:43:57.407Z,2.13
2019-03-12T21:46:26.321Z,2.40
2019-03-12T21:48:55.228Z,2.40
2019-03-12T21:51:24.123Z,2.93
2019-03-12T21:53:53.012Z,3.07
2019-03-12T21:56:21.990Z,3.20
2019-03-12T21:58:51.027Z,3.70
2019-03-12T22:01:19.856Z,3.67
2019-03-12T22:03:48.727Z,3.63
2019-03-12T22:06:17.605Z,4.00
2019-03-12T22:08:46.458Z,4.00
2019-03-12T22:11:15.427Z,4.20
2019-03-12T22:13:44.409Z,3.13
2019-03-12T22:16:13.226Z,4.65
2019-03-12T22:18:42.123Z,4.20
2019-03-12T22:21:11.041Z,10.67
2019-03-12T22:23:43.276Z,4.33
2019-03-12T22:26:12.163Z,3.57
2019-03-12T22:28:41.017Z,3.40
2019-03-12T22:31:09.964Z,3.33
2019-03-12T22:33:38.856Z,3.53
2019-03-12T22:36:07.818Z,3.33
2019-03-12T22:38:36.737Z,3.37
2019-03-12T22:41:05.627Z,3.30
2019-03-12T22:43:34.501Z,2.93
2019-03-12T22:46:03.355Z,3.10
2019-03-12T22:48:32.266Z,3.40
2019-03-12T22:51:01.118Z,2.60
2019-03-12T22:53:30.083Z,2.93
2019-03-12T22:55:58.914Z,2.77
2019-03-12T22:58:27.828Z,2.13
2019-03-12T23:00:56.721Z,2.60
2019-03-12T23:03:25.626Z,3.00
2019-03-12T23:05:54.501Z,2.20
2019-03-12T23:08:23.390Z,2.20
2019-03-12T23:10:52.285Z,2.73
2019-03-12T23:13:21.189Z,2.60
2019-03-12T23:15:50.054Z,2.00
2019-03-12T23:18:19.056Z,2.57
2019-03-12T23:20:47.923Z,2.20
2019-03-12T23:23:16.845Z,2.27
2019-03-12T23:25:45.735Z,2.57
2019-03-12T23:28:14.636Z,2.57
2019-03-12T23:30:43.525Z,2.98
2019-03-12T23:33:12.483Z,2.60
2019-03-12T23:35:41.340Z,2.53
2019-03-12T23:38:10.189Z,2.77
2019-03-12T23:40:39.118Z,3.17
2019-03-12T23:43:08.014Z,3.40
2019-03-12T23:45:36.906Z,3.30
2019-03-12T23:48:05.789Z,3.03
2019-03-12T23:50:34.720Z,3.10
2019-03-12T23:53:03.675Z,3.53
2019-03-12T23:55:32.786Z,3.10
2019-03-12T23:58:01.607Z,3.90
